createdAt,value
2023-04-30T00:00:10.840Z,13.75
2023-04-30T00:03:01.932Z,13.76
2023-04-30T00:05:33.108Z,13.76
2023-04-30T00:08:04.327Z,13.78
2023-04-30T00:10:35.271Z,13.78
2023-04-30T00:13:06.288Z,13.81
2023-04-30T00:15:37.160Z,13.78
2023-04-30T00:18:08.392Z,13.78
2023-04-30T00:20:39.390Z,13.76
2023-04-30T00:23:10.340Z,13.70
2023-04-30T00:25:41.274Z,13.65
2023-04-30T00:28:13.257Z,13.60
2023-04-30T00:30:44.062Z,13.56
2023-04-30T00:33:15.074Z,13.56
2023-04-30T00:35:45.794Z,13.58
2023-04-30T00:38:16.833Z,13.59
2023-04-30T00:40:47.502Z,13.59
2023-04-30T00:43:18.442Z,13.58
2023-04-30T00:45:49.206Z,13.59
2023-04-30T00:48:19.925Z,13.60
2023-04-30T00:50:50.566Z,13.57
2023-04-30T00:53:21.538Z,13.56
2023-04-30T00:55:52.259Z,13.52
2023-04-30T00:58:23.151Z,13.47
2023-04-30T01:00:53.816Z,13.37
2023-04-30T01:03:24.849Z,13.27
2023-04-30T01:05:55.842Z,13.21
2023-04-30T01:08:26.679Z,13.17
2023-04-30T01:10:59.133Z,13.16
2023-04-30T01:13:30.813Z,13.13
2023-04-30T01:16:04.028Z,13.07
2023-04-30T01:18:36.796Z,13.06
2023-04-30T01:21:07.605Z,13.08
2023-04-30T01:23:43.754Z,13.10
2023-04-30T01:26:15.234Z,13.13
2023-04-30T01:28:45.971Z,13.15
2023-04-30T01:31:17.738Z,13.14
2023-04-30T01:33:48.602Z,13.10
2023-04-30T01:36:22.817Z,13.03
2023-04-30T01:38:57.468Z,12.95
2023-04-30T01:41:31.160Z,12.88
2023-04-30T01:44:04.365Z,12.87
2023-04-30T01:46:35.888Z,12.85
2023-04-30T01:49:09.163Z,12.86
2023-04-30T01:51:41.496Z,12.86
2023-04-30T01:54:13.649Z,12.84
2023-04-30T01:56:45.565Z,12.82
2023-04-30T01:59:16.623Z,12.80
2023-04-30T02:01:47.949Z,12.73
2023-04-30T02:04:18.685Z,12.64
2023-04-30T02:06:49.554Z,12.59
2023-04-30T02:09:20.379Z,12.57
2023-04-30T02:11:51.497Z,12.56
2023-04-30T02:14:22.240Z,12.55
2023-04-30T02:16:53.004Z,12.53
2023-04-30T02:19:23.766Z,12.51
2023-04-30T02:21:54.650Z,12.50
2023-04-30T02:24:25.400Z,12.53
2023-04-30T02:26:56.168Z,12.55
2023-04-30T02:29:26.914Z,12.55
2023-04-30T02:31:59.165Z,12.53
2023-04-30T02:34:29.890Z,12.52
2023-04-30T02:37:00.924Z,12.51
2023-04-30T02:39:31.655Z,12.50
2023-04-30T02:42:02.452Z,12.45
2023-04-30T02:44:33.305Z,12.41
2023-04-30T02:47:04.090Z,12.36
2023-04-30T02:49:34.789Z,12.31
2023-04-30T02:52:06.163Z,12.26
2023-04-30T02:54:37.076Z,12.29
2023-04-30T02:57:08.130Z,12.30
2023-04-30T02:59:38.910Z,12.33
2023-04-30T03:02:09.859Z,12.37
2023-04-30T03:04:40.827Z,12.41
2023-04-30T03:07:11.596Z,12.43
2023-04-30T03:09:42.424Z,12.43
2023-04-30T03:12:14.661Z,12.38
2023-04-30T03:14:45.416Z,12.28
2023-04-30T03:17:16.716Z,12.20
2023-04-30T03:19:47.443Z,12.16
2023-04-30T03:22:19.567Z,12.14
2023-04-30T03:24:50.253Z,12.05
2023-04-30T03:27:21.078Z,11.99
2023-04-30T03:29:52.063Z,12.00
2023-04-30T03:32:23.109Z,11.98
2023-04-30T03:34:54.009Z,11.93
2023-04-30T03:37:24.807Z,11.95
2023-04-30T03:39:55.902Z,11.95
2023-04-30T03:42:26.744Z,11.94
2023-04-30T03:44:57.371Z,11.93
2023-04-30T03:47:28.221Z,11.95
2023-04-30T03:49:58.850Z,11.95
2023-04-30T03:52:29.608Z,11.93
2023-04-30T03:55:00.208Z,11.94
2023-04-30T03:57:31.099Z,11.98
2023-04-30T04:00:01.968Z,11.99
2023-04-30T04:02:34.141Z,11.97
2023-04-30T04:05:05.051Z,11.99
2023-04-30T04:07:35.946Z,12.01
2023-04-30T04:10:08.218Z,12.00
2023-04-30T04:12:39.052Z,11.99
2023-04-30T04:15:11.100Z,11.99
2023-04-30T04:17:41.840Z,12.00
2023-04-30T04:20:14.169Z,12.03
2023-04-30T04:22:45.182Z,12.07
2023-04-30T04:25:18.213Z,12.10
2023-04-30T04:27:49.248Z,12.12
2023-04-30T04:30:20.073Z,12.17
2023-04-30T04:32:54.055Z,12.19
2023-04-30T04:35:24.870Z,12.20
2023-04-30T04:37:56.494Z,12.20
2023-04-30T04:40:28.676Z,12.20
2023-04-30T04:43:00.933Z,12.22
2023-04-30T04:45:33.720Z,12.24
2023-04-30T04:48:04.592Z,12.25
2023-04-30T04:50:36.275Z,12.30
2023-04-30T04:53:07.172Z,12.32
2023-04-30T04:55:38.091Z,12.28
2023-04-30T04:58:08.786Z,12.25
2023-04-30T05:00:39.865Z,12.25
2023-04-30T05:03:10.852Z,12.28
2023-04-30T05:05:41.686Z,12.31
2023-04-30T05:08:12.490Z,12.36
2023-04-30T05:10:43.332Z,12.39
2023-04-30T05:13:14.108Z,12.37
2023-04-30T05:15:45.321Z,12.40
2023-04-30T05:18:16.376Z,12.43
2023-04-30T05:20:47.030Z,12.50
2023-04-30T05:23:17.853Z,12.59
2023-04-30T05:25:48.966Z,12.68
2023-04-30T05:28:19.734Z,12.78
2023-04-30T05:30:50.605Z,12.87
2023-04-30T05:33:21.465Z,12.97
2023-04-30T05:35:52.319Z,13.08
2023-04-30T05:38:23.202Z,13.18
2023-04-30T05:40:54.121Z,13.29
2023-04-30T05:43:25.426Z,13.40
2023-04-30T05:45:56.974Z,13.50
2023-04-30T05:48:27.888Z,13.59
2023-04-30T05:50:58.900Z,13.62
2023-04-30T05:53:29.505Z,13.70
2023-04-30T05:56:00.190Z,13.82
2023-04-30T05:58:31.238Z,13.93
2023-04-30T06:01:02.649Z,14.05
2023-04-30T06:03:33.323Z,14.17
2023-04-30T06:06:04.292Z,14.29
2023-04-30T06:08:34.951Z,14.43
2023-04-30T06:11:06.488Z,14.56
2023-04-30T06:13:37.384Z,14.71
2023-04-30T06:16:08.894Z,14.86
2023-04-30T06:18:39.775Z,15.01
2023-04-30T06:21:11.931Z,15.20
2023-04-30T06:23:44.351Z,15.36
2023-04-30T06:26:16.926Z,15.52
2023-04-30T06:28:48.876Z,15.67
2023-04-30T06:31:19.959Z,15.83
2023-04-30T06:33:51.958Z,16.03
2023-04-30T06:36:22.935Z,16.18
2023-04-30T06:38:55.025Z,16.34
2023-04-30T06:41:27.164Z,16.52
2023-04-30T06:43:58.588Z,16.77
2023-04-30T06:46:29.974Z,17.01
2023-04-30T06:49:01.998Z,17.20
2023-04-30T06:51:33.933Z,17.41
2023-04-30T06:54:05.251Z,17.55
2023-04-30T06:56:36.964Z,17.69
2023-04-30T06:59:08.926Z,17.84
2023-04-30T07:01:40.366Z,18.02
2023-04-30T07:04:12.602Z,18.16
2023-04-30T07:06:44.021Z,18.34
2023-04-30T07:09:15.757Z,18.55
2023-04-30T07:11:47.489Z,18.76
2023-04-30T07:14:18.588Z,18.87
2023-04-30T07:16:50.976Z,18.94
2023-04-30T07:19:22.061Z,19.05
2023-04-30T07:28:50.094Z,19.77
2023-04-30T07:31:21.405Z,19.84
2023-04-30T07:33:52.425Z,19.84
2023-04-30T07:36:23.191Z,19.89
2023-04-30T07:38:53.952Z,19.90
2023-04-30T07:41:25.542Z,19.96
2023-04-30T07:43:56.325Z,20.06
2023-04-30T07:46:27.240Z,20.20
2023-04-30T07:48:58.152Z,20.34
2023-04-30T07:51:29.179Z,20.43
2023-04-30T07:54:00.145Z,20.38
2023-04-30T07:56:30.955Z,20.33
2023-04-30T07:59:01.831Z,20.30
2023-04-30T08:01:32.906Z,20.34
2023-04-30T08:04:03.893Z,20.38
2023-04-30T08:06:34.715Z,20.26
2023-04-30T08:09:05.912Z,20.14
2023-04-30T08:11:36.854Z,20.10
2023-04-30T08:14:09.248Z,20.05
2023-04-30T08:16:40.237Z,20.00
2023-04-30T08:19:11.100Z,19.97
2023-04-30T08:21:42.085Z,20.01
2023-04-30T08:24:12.845Z,19.98
2023-04-30T08:26:43.700Z,19.93
2023-04-30T08:29:14.551Z,19.93
2023-04-30T08:31:45.413Z,20.07
2023-04-30T08:34:16.235Z,20.28
2023-04-30T08:36:47.058Z,20.43
2023-04-30T08:39:17.837Z,20.58
2023-04-30T08:41:48.984Z,20.76
2023-04-30T08:44:19.880Z,21.03
2023-04-30T08:46:50.780Z,21.39
2023-04-30T08:49:23.350Z,21.72
2023-04-30T08:51:55.543Z,22.08
2023-04-30T08:54:26.371Z,22.19
2023-04-30T08:56:57.269Z,22.27
2023-04-30T08:59:28.050Z,22.55
2023-04-30T09:01:59.033Z,22.84
2023-04-30T09:04:29.891Z,23.23
2023-04-30T09:07:02.912Z,23.62
2023-04-30T09:09:39.065Z,23.95
2023-04-30T09:12:19.309Z,24.23
2023-04-30T09:15:10.266Z,24.46
2023-04-30T09:17:41.342Z,24.75
2023-04-30T09:20:13.213Z,25.03
2023-04-30T09:22:44.014Z,25.33
2023-04-30T09:25:14.873Z,25.36
2023-04-30T09:27:48.416Z,25.20
2023-04-30T09:30:33.912Z,25.10
2023-04-30T09:33:05.185Z,25.20
2023-04-30T09:35:40.226Z,25.23
2023-04-30T09:38:26.554Z,24.99
2023-04-30T09:40:59.255Z,24.92
2023-04-30T09:43:31.069Z,25.37
2023-04-30T09:46:02.114Z,25.64
2023-04-30T09:48:33.049Z,25.80
2023-04-30T09:51:03.902Z,25.70
2023-04-30T09:53:34.827Z,25.58
2023-04-30T09:56:05.890Z,25.58
2023-04-30T09:58:38.304Z,25.74
2023-04-30T10:01:11.554Z,26.00
2023-04-30T10:03:43.002Z,26.12
2023-04-30T10:06:15.792Z,26.11
2023-04-30T10:08:47.603Z,26.00
2023-04-30T10:11:19.938Z,25.99
2023-04-30T10:13:53.846Z,26.18
2023-04-30T10:16:31.996Z,26.23
2023-04-30T10:19:04.699Z,26.29
2023-04-30T10:21:35.607Z,26.51
2023-04-30T10:24:06.856Z,26.83
2023-04-30T10:26:37.717Z,26.99
2023-04-30T10:29:08.626Z,26.99
2023-04-30T10:31:39.453Z,27.26
2023-04-30T10:34:12.876Z,27.66
2023-04-30T10:36:44.913Z,27.87
2023-04-30T10:39:15.831Z,28.15
2023-04-30T10:41:49.167Z,28.05
2023-04-30T10:44:24.346Z,27.72
2023-04-30T10:47:02.686Z,27.57
2023-04-30T10:49:34.318Z,27.41
2023-04-30T10:52:05.703Z,27.50
2023-04-30T10:54:43.541Z,27.93
2023-04-30T10:57:14.881Z,28.19
2023-04-30T10:59:54.289Z,28.16
2023-04-30T11:02:25.396Z,28.06
2023-04-30T11:05:17.577Z,28.00
2023-04-30T11:07:51.979Z,28.21
2023-04-30T11:10:24.322Z,28.48
2023-04-30T11:12:56.199Z,28.60
2023-04-30T11:15:28.312Z,28.72
2023-04-30T11:18:02.608Z,28.89
2023-04-30T11:20:33.554Z,28.67
2023-04-30T11:23:21.781Z,28.42
2023-04-30T11:26:01.201Z,28.60
2023-04-30T11:28:34.985Z,28.30
2023-04-30T11:31:06.113Z,28.01
2023-04-30T11:33:37.045Z,28.00
2023-04-30T11:36:10.837Z,27.86
2023-04-30T11:38:43.702Z,27.86
2023-04-30T11:41:14.997Z,28.20
2023-04-30T11:43:47.055Z,28.59
2023-04-30T11:46:18.894Z,28.64
2023-04-30T11:49:04.198Z,28.68
2023-04-30T11:51:59.044Z,28.75
2023-04-30T11:54:43.717Z,28.50
2023-04-30T11:57:15.206Z,28.50
2023-04-30T11:59:47.862Z,28.52
2023-04-30T12:02:31.466Z,28.47
2023-04-30T12:05:06.995Z,28.80
2023-04-30T12:07:38.124Z,29.18
2023-04-30T12:10:20.322Z,29.27
2023-04-30T12:12:53.348Z,29.10
2023-04-30T12:15:27.140Z,29.04
2023-04-30T12:17:59.020Z,29.19
2023-04-30T12:20:31.039Z,29.20
2023-04-30T12:23:02.126Z,29.16
2023-04-30T12:25:33.865Z,29.38
2023-04-30T12:28:04.672Z,29.48
2023-04-30T12:30:35.906Z,29.44
2023-04-30T12:33:07.712Z,29.36
2023-04-30T12:35:38.620Z,29.02
2023-04-30T12:38:11.550Z,28.84
2023-04-30T12:40:48.269Z,28.87
2023-04-30T12:43:22.620Z,28.85
2023-04-30T12:45:58.861Z,28.79
2023-04-30T12:48:29.866Z,29.16
2023-04-30T12:51:05.246Z,29.30
2023-04-30T12:53:36.538Z,29.20
2023-04-30T12:56:14.624Z,29.48
2023-04-30T12:58:47.621Z,29.83
2023-04-30T13:01:24.589Z,30.02
2023-04-30T13:04:01.518Z,30.16
2023-04-30T13:06:35.514Z,30.18
2023-04-30T13:09:07.556Z,30.20
2023-04-30T13:11:40.807Z,30.17
2023-04-30T13:14:13.220Z,30.35
2023-04-30T13:16:45.176Z,30.55
2023-04-30T13:19:18.262Z,30.13
2023-04-30T13:21:51.970Z,30.00
2023-04-30T13:24:22.838Z,30.09
2023-04-30T13:26:53.705Z,29.82
2023-04-30T13:29:30.596Z,29.61
2023-04-30T13:32:01.470Z,29.91
2023-04-30T13:34:32.254Z,30.18
2023-04-30T13:37:03.275Z,30.33
2023-04-30T13:39:34.271Z,30.05
2023-04-30T13:42:05.492Z,29.83
2023-04-30T13:44:37.495Z,29.86
2023-04-30T13:47:10.507Z,29.72
2023-04-30T13:49:41.145Z,29.58
2023-04-30T13:52:13.540Z,29.67
2023-04-30T13:54:44.511Z,29.64
2023-04-30T13:57:15.281Z,29.29
2023-04-30T13:59:46.206Z,28.97
2023-04-30T14:02:17.491Z,28.99
2023-04-30T14:05:04.653Z,28.84
2023-04-30T14:07:37.495Z,28.67
2023-04-30T14:10:09.414Z,28.65
2023-04-30T14:12:40.530Z,28.87
2023-04-30T14:15:11.945Z,29.14
2023-04-30T14:17:42.749Z,29.00
2023-04-30T14:20:14.809Z,28.75
2023-04-30T14:22:48.589Z,28.98
2023-04-30T14:25:22.909Z,29.16
2023-04-30T14:27:54.674Z,29.10
2023-04-30T14:30:26.088Z,28.93
2023-04-30T14:32:57.251Z,28.63
2023-04-30T14:35:28.113Z,28.21
2023-04-30T14:37:58.938Z,27.76
2023-04-30T14:40:29.560Z,27.47
2023-04-30T14:43:02.101Z,27.32
2023-04-30T14:45:33.054Z,27.29
2023-04-30T14:48:05.648Z,27.15
2023-04-30T14:50:36.681Z,26.95
2023-04-30T14:53:07.465Z,26.67
2023-04-30T14:55:38.088Z,26.65
2023-04-30T14:58:08.902Z,26.54
2023-04-30T15:00:39.802Z,26.23
2023-04-30T15:03:10.534Z,25.91
2023-04-30T15:05:41.304Z,25.54
2023-04-30T15:08:12.193Z,25.05
2023-04-30T15:10:45.314Z,24.82
2023-04-30T15:13:20.308Z,24.63
2023-04-30T15:15:50.962Z,24.57
2023-04-30T15:18:21.790Z,24.46
2023-04-30T15:20:52.641Z,24.38
2023-04-30T15:23:23.487Z,24.28
2023-04-30T15:25:54.127Z,24.04
2023-04-30T15:28:25.486Z,23.80
2023-04-30T15:30:56.336Z,23.62
2023-04-30T15:33:28.871Z,23.46
2023-04-30T15:35:59.584Z,23.32
2023-04-30T15:38:30.336Z,23.20
2023-04-30T15:41:03.130Z,23.02
2023-04-30T15:43:33.889Z,22.96
2023-04-30T15:46:04.924Z,23.02
2023-04-30T15:48:35.797Z,23.16
2023-04-30T15:51:06.641Z,23.30
2023-04-30T15:53:38.766Z,23.41
2023-04-30T15:56:25.764Z,23.52
2023-04-30T15:59:08.287Z,23.63
2023-04-30T16:01:40.362Z,23.74
2023-04-30T16:04:11.298Z,23.81
2023-04-30T16:06:45.581Z,23.90
2023-04-30T16:09:19.860Z,23.93
2023-04-30T16:11:50.958Z,23.91
2023-04-30T16:14:21.896Z,23.91
2023-04-30T16:16:52.902Z,23.89
2023-04-30T16:19:23.558Z,23.85
2023-04-30T16:21:54.595Z,23.76
2023-04-30T16:24:25.534Z,23.59
2023-04-30T16:26:56.383Z,23.38
2023-04-30T16:29:27.162Z,23.24
2023-04-30T16:31:58.573Z,23.19
2023-04-30T16:34:29.398Z,23.09
2023-04-30T16:37:00.080Z,22.98
2023-04-30T16:39:30.876Z,22.78
2023-04-30T16:42:02.723Z,22.54
2023-04-30T16:44:33.509Z,22.42
2023-04-30T16:47:04.432Z,22.43
2023-04-30T16:49:35.467Z,22.44
2023-04-30T16:52:06.402Z,22.42
2023-04-30T16:54:37.419Z,22.36
2023-04-30T16:57:08.098Z,22.25
2023-04-30T16:59:38.786Z,22.18
2023-04-30T17:02:10.003Z,22.09
2023-04-30T17:04:41.103Z,21.96
2023-04-30T17:07:12.801Z,21.87
2023-04-30T17:09:43.645Z,21.82
2023-04-30T17:12:14.592Z,21.82
2023-04-30T17:14:45.450Z,21.88
2023-04-30T17:17:16.229Z,21.88
2023-04-30T17:19:47.106Z,21.79
2023-04-30T17:22:20.385Z,21.75
2023-04-30T17:24:51.157Z,21.82
2023-04-30T17:27:21.842Z,21.85
2023-04-30T17:29:52.904Z,21.62
2023-04-30T17:32:23.790Z,21.21
2023-04-30T17:34:54.592Z,21.01
2023-04-30T17:37:25.337Z,20.88
2023-04-30T17:39:56.388Z,20.74
2023-04-30T17:42:27.398Z,20.52
2023-04-30T17:44:58.254Z,20.34
2023-04-30T17:47:28.903Z,20.18
2023-04-30T17:50:00.409Z,20.01
2023-04-30T17:52:31.372Z,19.86
2023-04-30T17:55:02.377Z,19.74
2023-04-30T17:57:33.745Z,19.68
2023-04-30T18:00:05.228Z,19.62
2023-04-30T18:02:36.043Z,19.54
2023-04-30T18:05:09.198Z,19.50
2023-04-30T18:07:39.922Z,19.37
2023-04-30T18:10:11.309Z,19.21
2023-04-30T18:12:44.368Z,19.10
2023-04-30T18:15:15.337Z,19.08
2023-04-30T18:17:46.135Z,18.94
2023-04-30T18:20:18.625Z,18.88
2023-04-30T18:22:49.684Z,18.76
2023-04-30T18:25:20.920Z,18.57
2023-04-30T18:27:51.698Z,18.43
2023-04-30T18:30:23.046Z,18.21
2023-04-30T18:32:54.027Z,18.03
2023-04-30T18:35:24.884Z,17.91
2023-04-30T18:37:55.873Z,17.74
2023-04-30T18:40:26.657Z,17.62
2023-04-30T18:42:57.634Z,17.54
2023-04-30T18:45:28.380Z,17.49
2023-04-30T18:48:00.207Z,17.48
2023-04-30T18:50:31.059Z,17.47
2023-04-30T18:53:01.971Z,17.46
2023-04-30T18:55:32.604Z,17.46
2023-04-30T18:58:03.346Z,17.44
2023-04-30T19:00:34.308Z,17.41
2023-04-30T19:03:05.227Z,17.37
2023-04-30T19:05:37.585Z,17.35
2023-04-30T19:08:09.162Z,17.32
2023-04-30T19:10:40.142Z,17.26
2023-04-30T19:13:11.381Z,17.30
2023-04-30T19:15:46.107Z,17.33
2023-04-30T19:18:17.880Z,17.27
2023-04-30T19:20:57.872Z,17.25
2023-04-30T19:23:30.472Z,17.27
2023-04-30T19:26:01.754Z,17.19
2023-04-30T19:28:33.113Z,17.08
2023-04-30T19:31:04.153Z,16.95
2023-04-30T19:33:39.273Z,16.85
2023-04-30T19:36:10.306Z,16.84
2023-04-30T19:38:41.443Z,16.88
2023-04-30T19:41:12.661Z,16.90
2023-04-30T19:43:43.548Z,16.90
2023-04-30T19:46:14.499Z,16.95
2023-04-30T19:48:45.296Z,17.03
2023-04-30T19:51:16.353Z,17.11
2023-04-30T19:53:47.357Z,17.14
2023-04-30T19:56:18.285Z,17.16
2023-04-30T19:58:49.125Z,17.18
2023-04-30T20:01:20.180Z,17.19
2023-04-30T20:03:51.087Z,17.15
2023-04-30T20:06:22.141Z,17.13
2023-04-30T20:08:53.017Z,17.12
2023-04-30T20:11:23.674Z,17.10
2023-04-30T20:13:55.185Z,17.13
2023-04-30T20:16:26.418Z,17.18
2023-04-30T20:18:57.157Z,17.22
2023-04-30T20:21:29.757Z,17.30
2023-04-30T20:24:01.235Z,17.33
2023-04-30T20:26:32.842Z,17.37
2023-04-30T20:29:04.810Z,17.47
2023-04-30T20:31:37.865Z,17.56
2023-04-30T20:34:09.218Z,17.63
2023-04-30T20:36:40.812Z,17.71
2023-04-30T20:39:11.963Z,17.79
2023-04-30T20:41:43.834Z,17.87
2023-04-30T20:44:15.231Z,17.90
2023-04-30T20:46:48.020Z,17.88
2023-04-30T20:49:19.637Z,17.87
2023-04-30T20:51:51.857Z,17.84
2023-04-30T20:54:23.238Z,17.80
2023-04-30T20:56:54.837Z,17.74
2023-04-30T20:59:26.141Z,17.67
2023-04-30T21:01:57.876Z,17.56
2023-04-30T21:04:29.244Z,17.45
2023-04-30T21:07:01.885Z,17.38
2023-04-30T21:09:35.711Z,17.39
2023-04-30T21:12:06.849Z,17.39
2023-04-30T21:14:38.497Z,17.42
2023-04-30T21:17:09.871Z,17.47
2023-04-30T21:19:41.276Z,17.50
2023-04-30T21:28:41.809Z,17.61
2023-04-30T21:31:12.645Z,17.60
2023-04-30T21:33:43.608Z,17.61
2023-04-30T21:36:16.587Z,17.53
2023-04-30T21:38:47.399Z,17.48
2023-04-30T21:41:18.621Z,17.48
2023-04-30T21:43:49.402Z,17.47
2023-04-30T21:46:20.360Z,17.41
2023-04-30T21:48:51.425Z,17.39
2023-04-30T21:51:22.398Z,17.39
2023-04-30T21:53:53.187Z,17.39
2023-04-30T21:56:24.047Z,17.41
2023-04-30T21:58:54.800Z,17.44
2023-04-30T22:01:27.743Z,17.45
2023-04-30T22:03:58.944Z,17.41
2023-04-30T22:06:29.839Z,17.38
2023-04-30T22:09:00.760Z,17.32
2023-04-30T22:11:31.970Z,17.16
2023-04-30T22:14:04.323Z,17.05
2023-04-30T22:16:35.214Z,16.96
2023-04-30T22:19:06.131Z,16.90
2023-04-30T22:21:37.004Z,16.87
2023-04-30T22:24:08.370Z,16.83
2023-04-30T22:26:39.132Z,16.72
2023-04-30T22:29:10.491Z,16.64
2023-04-30T22:31:41.286Z,16.64
2023-04-30T22:34:12.778Z,16.67
2023-04-30T22:36:43.447Z,16.69
2023-04-30T22:39:14.138Z,16.65
2023-04-30T22:41:46.702Z,16.59
2023-04-30T22:44:17.778Z,16.52
2023-04-30T22:46:48.955Z,16.36
2023-04-30T22:49:30.632Z,16.22
2023-04-30T22:52:02.845Z,16.22
2023-04-30T22:54:33.691Z,16.21
2023-04-30T22:57:04.621Z,16.12
2023-04-30T22:59:35.535Z,16.05
2023-04-30T23:02:06.349Z,16.05
2023-04-30T23:04:37.232Z,16.01
2023-04-30T23:07:07.966Z,16.02
2023-04-30T23:09:38.756Z,16.04
2023-04-30T23:12:09.711Z,16.01
2023-04-30T23:14:40.529Z,16.00
2023-04-30T23:17:11.426Z,15.96
2023-04-30T23:19:42.222Z,15.88
2023-04-30T23:22:13.015Z,15.80
2023-04-30T23:24:43.854Z,15.67
2023-04-30T23:27:14.695Z,15.63
2023-04-30T23:29:45.637Z,15.62
2023-04-30T23:32:16.416Z,15.59
2023-04-30T23:34:47.795Z,15.49
2023-04-30T23:37:18.579Z,15.44
2023-04-30T23:39:49.347Z,15.44
2023-04-30T23:42:20.189Z,15.43
2023-04-30T23:44:50.964Z,15.34
2023-04-30T23:47:21.840Z,15.25
2023-04-30T23:49:52.658Z,15.25
2023-04-30T23:52:23.494Z,15.28
2023-04-30T23:54:54.341Z,15.31
2023-04-30T23:57:27.736Z,15.30
2023-04-30T23:59:58.675Z,15.34
